Terminal Aerodrome Forecast
Issued by NWS Cleveland, OH

Home | Current Version | Previous Version | Text Only | Print | Product List | Glossary On
Versions: 1 2 3 4 5 6 7 8 9 10 11 12 13 14 15 16 17 18 19 20 21 22 23 24 25 26 27 28 29 30
000
FTUS41 KCLE 232324
TAFCLE
TAF
KCLE 232324Z 2400/2506 32006KT P6SM FEW060 SCT100
     FM241200 36010KT P6SM SCT120 PROB30 2412/2418 5SM -SHRA BKN045
     FM250100 01006KT P6SM VCSH SCT045=

USA.gov is the U.S. government's official web portal to all federal, state and local government web resources and services.